sensor_id;sensor_type;location;lat;lon;timestamp;pressure;altitude;pressure_sealevel;temperature;humidity
42003;BME280;27693;50.506;30.832;2022-09-17T00:00:54;98822.81;;;12.14;80.98
42003;BME280;27693;50.506;30.832;2022-09-17T00:01:57;98821.84;;;12.15;80.83
42003;BME280;27693;50.506;30.832;2022-09-17T00:02:59;98820.20;;;12.14;80.89
42003;BME280;27693;50.506;30.832;2022-09-17T00:04:01;98828.22;;;12.11;80.96
42003;BME280;27693;50.506;30.832;2022-09-17T00:05:04;98834.48;;;12.08;81.15
42003;BME280;27693;50.506;30.832;2022-09-17T00:06:08;98830.30;;;12.06;81.23
42003;BME280;27693;50.506;30.832;2022-09-17T00:07:10;98830.71;;;12.00;81.61
42003;BME280;27693;50.506;30.832;2022-09-17T00:08:13;98837.79;;;11.97;81.74
42003;BME280;27693;50.506;30.832;2022-09-17T00:09:15;98843.08;;;11.96;81.77
42003;BME280;27693;50.506;30.832;2022-09-17T00:10:19;98853.16;;;11.88;82.08
42003;BME280;27693;50.506;30.832;2022-09-17T00:11:32;98852.93;;;11.78;82.58
42003;BME280;27693;50.506;30.832;2022-09-17T00:12:27;98856.47;;;11.77;82.73
42003;BME280;27693;50.506;30.832;2022-09-17T00:13:29;98849.05;;;11.71;83.10
42003;BME280;27693;50.506;30.832;2022-09-17T00:14:31;98844.77;;;11.70;83.14
42003;BME280;27693;50.506;30.832;2022-09-17T00:15:43;98841.23;;;11.71;83.13
42003;BME280;27693;50.506;30.832;2022-09-17T00:16:45;98844.37;;;11.76;82.95
42003;BME280;27693;50.506;30.832;2022-09-17T00:17:48;98846.05;;;11.77;82.87
42003;BME280;27693;50.506;30.832;2022-09-17T00:18:51;98842.51;;;11.78;82.86
42003;BME280;27693;50.506;30.832;2022-09-17T00:19:53;98832.83;;;11.80;82.74
42003;BME280;27693;50.506;30.832;2022-09-17T00:20:55;98828.33;;;11.82;82.58
42003;BME280;27693;50.506;30.832;2022-09-17T00:21:57;98833.14;;;11.88;82.85
42003;BME280;27693;50.506;30.832;2022-09-17T00:22:59;98821.48;;;11.94;82.57
42003;BME280;27693;50.506;30.832;2022-09-17T00:24:04;98823.98;;;11.95;82.15
42003;BME280;27693;50.506;30.832;2022-09-17T00:25:06;98824.91;;;11.94;82.31
42003;BME280;27693;50.506;30.832;2022-09-17T00:26:09;98820.84;;;11.90;82.38
42003;BME280;27693;50.506;30.832;2022-09-17T00:27:11;98827.10;;;11.88;82.52
42003;BME280;27693;50.506;30.832;2022-09-17T00:28:13;98824.61;;;11.86;82.52
42003;BME280;27693;50.506;30.832;2022-09-17T00:29:15;98825.53;;;11.85;82.72
42003;BME280;27693;50.506;30.832;2022-09-17T00:30:18;98817.50;;;11.88;82.67
42003;BME280;27693;50.506;30.832;2022-09-17T00:31:21;98818.13;;;11.92;82.35
42003;BME280;27693;50.506;30.832;2022-09-17T00:32:24;98818.05;;;11.93;82.37
42003;BME280;27693;50.506;30.832;2022-09-17T00:33:26;98816.00;;;11.98;82.22
42003;BME280;27693;50.506;30.832;2022-09-17T00:34:28;98811.53;;;12.01;82.28
42003;BME280;27693;50.506;30.832;2022-09-17T00:35:29;98816.34;;;12.07;82.01
42003;BME280;27693;50.506;30.832;2022-09-17T00:36:38;98812.39;;;12.14;81.57
42003;BME280;27693;50.506;30.832;2022-09-17T00:37:40;98813.31;;;12.13;81.67
42003;BME280;27693;50.506;30.832;2022-09-17T00:38:42;98813.64;;;12.21;81.45
42003;BME280;27693;50.506;30.832;2022-09-17T00:39:43;98824.08;;;12.21;80.95
42003;BME280;27693;50.506;30.832;2022-09-17T00:40:45;98830.74;;;12.25;80.92
42003;BME280;27693;50.506;30.832;2022-09-17T00:41:47;98833.02;;;12.17;80.84
42003;BME280;27693;50.506;30.832;2022-09-17T00:42:49;98830.83;;;12.11;81.21
42003;BME280;27693;50.506;30.832;2022-09-17T00:43:54;98826.35;;;12.13;81.36
42003;BME280;27693;50.506;30.832;2022-09-17T00:44:56;98816.03;;;12.11;81.14
42003;BME280;27693;50.506;30.832;2022-09-17T00:46:00;98810.71;;;12.13;81.18
42003;BME280;27693;50.506;30.832;2022-09-17T00:47:03;98808.22;;;12.11;81.29
42003;BME280;27693;50.506;30.832;2022-09-17T00:48:08;98801.95;;;12.14;81.15
42003;BME280;27693;50.506;30.832;2022-09-17T00:49:13;98795.26;;;12.10;81.22
42003;BME280;27693;50.506;30.832;2022-09-17T00:50:20;98802.14;;;12.11;81.36
42003;BME280;27693;50.506;30.832;2022-09-17T00:51:29;98803.38;;;12.05;81.45
42003;BME280;27693;50.506;30.832;2022-09-17T00:52:36;98808.41;;;12.08;81.55
42003;BME280;27693;50.506;30.832;2022-09-17T00:53:41;98810.27;;;12.06;81.49
42003;BME280;27693;50.506;30.832;2022-09-17T00:54:46;98813.03;;;11.90;82.22
42003;BME280;27693;50.506;30.832;2022-09-17T00:56:57;98829.20;;;11.95;82.30
42003;BME280;27693;50.506;30.832;2022-09-17T00:58:02;98829.59;;;11.89;82.13
42003;BME280;27693;50.506;30.832;2022-09-17T00:59:05;98836.84;;;11.71;82.92
42003;BME280;27693;50.506;30.832;2022-09-17T01:00:09;98833.59;;;11.67;82.98
42003;BME280;27693;50.506;30.832;2022-09-17T01:01:12;98830.11;;;11.54;83.69
42003;BME280;27693;50.506;30.832;2022-09-17T01:02:14;98835.53;;;11.51;84.03
42003;BME280;27693;50.506;30.832;2022-09-17T01:03:17;98847.38;;;11.42;84.39
42003;BME280;27693;50.506;30.832;2022-09-17T01:04:21;98842.48;;;11.23;85.20
42003;BME280;27693;50.506;30.832;2022-09-17T01:06:54;98843.95;;;11.27;85.60
42003;BME280;27693;50.506;30.832;2022-09-17T01:07:56;98847.99;;;11.04;86.00
42003;BME280;27693;50.506;30.832;2022-09-17T01:11:13;98832.84;;;11.11;86.45
42003;BME280;27693;50.506;30.832;2022-09-17T01:16:58;98835.61;;;11.22;86.60
42003;BME280;27693;50.506;30.832;2022-09-17T01:23:30;98849.52;;;11.35;85.62
42003;BME280;27693;50.506;30.832;2022-09-17T01:24:37;98855.66;;;11.34;85.84
42003;BME280;27693;50.506;30.832;2022-09-17T01:28:28;98841.45;;;11.26;85.78
42003;BME280;27693;50.506;30.832;2022-09-17T01:31:07;98842.23;;;11.13;86.22
42003;BME280;27693;50.506;30.832;2022-09-17T01:32:28;98844.20;;;10.95;87.29
42003;BME280;27693;50.506;30.832;2022-09-17T01:33:36;98848.38;;;10.98;87.44
42003;BME280;27693;50.506;30.832;2022-09-17T01:35:02;98843.99;;;10.98;87.56
42003;BME280;27693;50.506;30.832;2022-09-17T01:37:16;98851.45;;;10.76;88.81
42003;BME280;27693;50.506;30.832;2022-09-17T01:38:31;98850.70;;;10.74;89.12
42003;BME280;27693;50.506;30.832;2022-09-17T01:40:55;98862.02;;;10.58;90.10
42003;BME280;27693;50.506;30.832;2022-09-17T01:42:14;98864.63;;;10.58;90.14
42003;BME280;27693;50.506;30.832;2022-09-17T01:43:36;98860.66;;;10.67;89.97
42003;BME280;27693;50.506;30.832;2022-09-17T01:44:41;98858.69;;;10.85;90.02
42003;BME280;27693;50.506;30.832;2022-09-17T01:45:51;98858.03;;;10.96;89.15
42003;BME280;27693;50.506;30.832;2022-09-17T01:47:00;98848.09;;;11.02;88.54
42003;BME280;27693;50.506;30.832;2022-09-17T01:48:15;98844.30;;;10.94;88.58
42003;BME280;27693;50.506;30.832;2022-09-17T01:49:19;98851.08;;;10.96;88.65
42003;BME280;27693;50.506;30.832;2022-09-17T01:50:29;98859.61;;;10.98;88.31
42003;BME280;27693;50.506;30.832;2022-09-17T01:51:38;98860.46;;;10.99;88.46
42003;BME280;27693;50.506;30.832;2022-09-17T01:52:43;98857.95;;;11.12;88.34
42003;BME280;27693;50.506;30.832;2022-09-17T01:54:02;98866.02;;;11.22;87.84
42003;BME280;27693;50.506;30.832;2022-09-17T01:55:08;98860.43;;;11.28;87.40
42003;BME280;27693;50.506;30.832;2022-09-17T01:56:14;98868.70;;;11.20;87.10
42003;BME280;27693;50.506;30.832;2022-09-17T01:57:31;98863.70;;;11.17;87.11
42003;BME280;27693;50.506;30.832;2022-09-17T01:58:35;98866.96;;;11.06;87.43
42003;BME280;27693;50.506;30.832;2022-09-17T02:00:54;98872.61;;;11.13;87.27
42003;BME280;27693;50.506;30.832;2022-09-17T02:02:12;98871.96;;;11.09;87.11
42003;BME280;27693;50.506;30.832;2022-09-17T02:04:32;98867.02;;;11.19;86.62
42003;BME280;27693;50.506;30.832;2022-09-17T02:06:01;98869.45;;;11.22;86.50
42003;BME280;27693;50.506;30.832;2022-09-17T02:06:53;98859.58;;;11.27;86.33
42003;BME280;27693;50.506;30.832;2022-09-17T02:07:58;98858.65;;;11.28;86.29
42003;BME280;27693;50.506;30.832;2022-09-17T02:09:07;98866.45;;;11.28;86.21
42003;BME280;27693;50.506;30.832;2022-09-17T02:10:15;98870.92;;;11.26;86.30
42003;BME280;27693;50.506;30.832;2022-09-17T02:11:18;98862.56;;;11.21;86.59
42003;BME280;27693;50.506;30.832;2022-09-17T02:12:24;98864.52;;;11.17;86.80
42003;BME280;27693;50.506;30.832;2022-09-17T02:14:38;98872.61;;;11.13;87.23
42003;BME280;27693;50.506;30.832;2022-09-17T02:15:46;98866.69;;;11.11;87.44
42003;BME280;27693;50.506;30.832;2022-09-17T02:16:51;98866.69;;;11.11;87.45
42003;BME280;27693;50.506;30.832;2022-09-17T02:18:04;98865.94;;;11.09;87.51
42003;BME280;27693;50.506;30.832;2022-09-17T02:19:15;98855.80;;;11.04;87.61
42003;BME280;27693;50.506;30.832;2022-09-17T02:20:17;98860.73;;;11.09;87.70
42003;BME280;27693;50.506;30.832;2022-09-17T02:21:29;98859.05;;;11.08;87.61
42003;BME280;27693;50.506;30.832;2022-09-17T02:22:43;98853.29;;;11.17;87.61
42003;BME280;27693;50.506;30.832;2022-09-17T02:23:53;98851.41;;;11.19;87.22
42003;BME280;27693;50.506;30.832;2022-09-17T02:25:13;98847.48;;;11.26;87.01
42003;BME280;27693;50.506;30.832;2022-09-17T02:26:17;98849.80;;;11.31;86.71
42003;BME280;27693;50.506;30.832;2022-09-17T02:28:39;98848.38;;;11.40;86.53
42003;BME280;27693;50.506;30.832;2022-09-17T02:29:43;98850.70;;;11.44;86.24
42003;BME280;27693;50.506;30.832;2022-09-17T02:30:45;98857.59;;;11.45;86.04
42003;BME280;27693;50.506;30.832;2022-09-17T02:31:47;98856.16;;;11.54;86.23
42003;BME280;27693;50.506;30.832;2022-09-17T02:32:51;98860.55;;;11.54;85.80
42003;BME280;27693;50.506;30.832;2022-09-17T02:33:57;98863.40;;;11.63;85.76
42003;BME280;27693;50.506;30.832;2022-09-17T02:35:00;98859.09;;;11.49;85.42
42003;BME280;27693;50.506;30.832;2022-09-17T02:36:03;98867.19;;;11.45;85.69
42003;BME280;27693;50.506;30.832;2022-09-17T02:37:06;98857.70;;;11.44;85.65
42003;BME280;27693;50.506;30.832;2022-09-17T02:38:08;98862.33;;;11.53;85.45
42003;BME280;27693;50.506;30.832;2022-09-17T02:39:10;98865.76;;;11.54;85.09
42003;BME280;27693;50.506;30.832;2022-09-17T02:40:15;98864.58;;;11.45;85.45
42003;BME280;27693;50.506;30.832;2022-09-17T02:41:21;98860.09;;;11.47;85.52
42003;BME280;27693;50.506;30.832;2022-09-17T02:43:49;98869.29;;;11.53;84.90
42003;BME280;27693;50.506;30.832;2022-09-17T02:51:04;98869.54;;;11.62;84.86
42003;BME280;27693;50.506;30.832;2022-09-17T02:53:38;98862.89;;;11.71;83.99
42003;BME280;27693;50.506;30.832;2022-09-17T02:54:54;98859.17;;;11.75;83.77
42003;BME280;27693;50.506;30.832;2022-09-17T02:56:24;98855.00;;;11.73;83.85
42003;BME280;27693;50.506;30.832;2022-09-17T02:57:29;98854.69;;;11.77;84.15
42003;BME280;27693;50.506;30.832;2022-09-17T02:58:43;98854.95;;;11.87;83.40
42003;BME280;27693;50.506;30.832;2022-09-17T03:00:58;98855.88;;;11.86;83.23
42003;BME280;27693;50.506;30.832;2022-09-17T03:02:15;98853.11;;;11.75;83.47
42003;BME280;27693;50.506;30.832;2022-09-17T03:03:27;98848.11;;;11.72;83.69
42003;BME280;27693;50.506;30.832;2022-09-17T03:04:30;98846.62;;;11.67;83.98
42003;BME280;27693;50.506;30.832;2022-09-17T03:05:35;98840.59;;;11.67;84.09
42003;BME280;27693;50.506;30.832;2022-09-17T03:06:40;98838.52;;;11.72;83.82
42003;BME280;27693;50.506;30.832;2022-09-17T03:07:42;98829.88;;;11.72;83.78
42003;BME280;27693;50.506;30.832;2022-09-17T03:08:45;98830.70;;;11.72;83.75
42003;BME280;27693;50.506;30.832;2022-09-17T03:09:47;98844.58;;;11.73;83.69
42003;BME280;27693;50.506;30.832;2022-09-17T03:10:49;98837.08;;;11.81;83.83
42003;BME280;27693;50.506;30.832;2022-09-17T03:11:51;98836.48;;;11.90;83.55
42003;BME280;27693;50.506;30.832;2022-09-17T03:12:53;98827.17;;;12.01;83.38
42003;BME280;27693;50.506;30.832;2022-09-17T03:13:55;98829.48;;;12.18;83.80
42003;BME280;27693;50.506;30.832;2022-09-17T03:14:57;98834.30;;;12.37;83.08
42003;BME280;27693;50.506;30.832;2022-09-17T03:15:59;98830.97;;;12.48;82.06
42003;BME280;27693;50.506;30.832;2022-09-17T03:17:01;98830.97;;;12.48;80.94
42003;BME280;27693;50.506;30.832;2022-09-17T03:18:03;98825.96;;;12.58;80.98
42003;BME280;27693;50.506;30.832;2022-09-17T03:19:05;98826.78;;;12.58;80.27
42003;BME280;27693;50.506;30.832;2022-09-17T03:20:08;98828.77;;;12.55;79.89
42003;BME280;27693;50.506;30.832;2022-09-17T03:21:10;98843.06;;;12.62;79.95
42003;BME280;27693;50.506;30.832;2022-09-17T03:22:12;98840.45;;;12.62;79.91
42003;BME280;27693;50.506;30.832;2022-09-17T03:23:14;98852.45;;;12.65;79.73
42003;BME280;27693;50.506;30.832;2022-09-17T03:24:16;98834.61;;;12.58;79.53
42003;BME280;27693;50.506;30.832;2022-09-17T03:25:18;98844.43;;;12.68;79.68
42003;BME280;27693;50.506;30.832;2022-09-17T03:26:21;98841.59;;;12.71;79.60
42003;BME280;27693;50.506;30.832;2022-09-17T03:27:23;98844.74;;;12.76;79.56
42003;BME280;27693;50.506;30.832;2022-09-17T03:28:24;98852.04;;;12.45;79.97
42003;BME280;27693;50.506;30.832;2022-09-17T03:29:26;98852.04;;;12.45;79.97
42003;BME280;27693;50.506;30.832;2022-09-17T03:30:29;98853.18;;;12.54;80.24
42003;BME280;27693;50.506;30.832;2022-09-17T03:31:31;98855.38;;;12.60;79.90
42003;BME280;27693;50.506;30.832;2022-09-17T03:32:34;98850.17;;;12.47;80.26
42003;BME280;27693;50.506;30.832;2022-09-17T03:33:36;98854.86;;;12.55;80.39
42003;BME280;27693;50.506;30.832;2022-09-17T03:34:37;98843.92;;;12.62;79.77
42003;BME280;27693;50.506;30.832;2022-09-17T03:35:43;98851.20;;;12.57;79.72
42003;BME280;27693;50.506;30.832;2022-09-17T03:36:46;98851.20;;;12.57;79.72
42003;BME280;27693;50.506;30.832;2022-09-17T03:37:48;98853.41;;;12.51;79.93
42003;BME280;27693;50.506;30.832;2022-09-17T03:38:55;98850.17;;;12.47;80.25
42003;BME280;27693;50.506;30.832;2022-09-17T03:39:57;98853.71;;;12.46;80.32
42003;BME280;27693;50.506;30.832;2022-09-17T03:41:01;98846.09;;;12.56;80.45
42003;BME280;27693;50.506;30.832;2022-09-17T03:42:05;98839.63;;;12.61;80.12
42003;BME280;27693;50.506;30.832;2022-09-17T03:43:07;98842.64;;;12.68;79.99
42003;BME280;27693;50.506;30.832;2022-09-17T03:44:09;98840.14;;;12.80;79.54
42003;BME280;27693;50.506;30.832;2022-09-17T03:45:11;98850.78;;;12.89;79.28
42003;BME280;27693;50.506;30.832;2022-09-17T03:46:16;98840.11;;;12.92;79.21
42003;BME280;27693;50.506;30.832;2022-09-17T03:47:18;98846.38;;;12.90;78.82
42003;BME280;27693;50.506;30.832;2022-09-17T03:48:21;98848.45;;;12.98;78.91
42003;BME280;27693;50.506;30.832;2022-09-17T03:49:23;98852.85;;;12.84;78.67
42003;BME280;27693;50.506;30.832;2022-09-17T03:50:26;98839.95;;;12.70;78.93
42003;BME280;27693;50.506;30.832;2022-09-17T03:51:28;98842.44;;;12.71;79.29
42003;BME280;27693;50.506;30.832;2022-09-17T03:52:30;98849.96;;;12.76;79.11
42003;BME280;27693;50.506;30.832;2022-09-17T03:53:33;98848.06;;;12.78;79.04
42003;BME280;27693;50.506;30.832;2022-09-17T03:54:35;98860.20;;;12.66;79.50
42003;BME280;27693;50.506;30.832;2022-09-17T03:55:38;98859.15;;;12.69;79.49
42003;BME280;27693;50.506;30.832;2022-09-17T03:56:40;98864.56;;;12.66;79.64
42003;BME280;27693;50.506;30.832;2022-09-17T03:57:42;98858.92;;;12.72;79.76
42003;BME280;27693;50.506;30.832;2022-09-17T03:58:45;98866.44;;;12.76;79.56
42003;BME280;27693;50.506;30.832;2022-09-17T03:59:47;98856.44;;;12.83;79.32
42003;BME280;27693;50.506;30.832;2022-09-17T04:00:49;98860.17;;;12.79;79.24
42003;BME280;27693;50.506;30.832;2022-09-17T04:01:51;98862.78;;;12.79;79.40
42003;BME280;27693;50.506;30.832;2022-09-17T04:02:54;98867.80;;;12.69;79.50
42003;BME280;27693;50.506;30.832;2022-09-17T04:03:56;98857.98;;;12.73;79.54
42003;BME280;27693;50.506;30.832;2022-09-17T04:04:58;98871.66;;;12.76;79.40
42003;BME280;27693;50.506;30.832;2022-09-17T04:06:00;98862.70;;;12.68;79.45
42003;BME280;27693;50.506;30.832;2022-09-17T04:07:02;98867.69;;;12.45;80.33
42003;BME280;27693;50.506;30.832;2022-09-17T04:08:04;98869.78;;;12.40;80.78
42003;BME280;27693;50.506;30.832;2022-09-17T04:09:07;98869.17;;;12.49;80.90
42003;BME280;27693;50.506;30.832;2022-09-17T04:10:09;98864.77;;;12.50;80.60
42003;BME280;27693;50.506;30.832;2022-09-17T04:11:11;98859.77;;;12.59;80.52
42003;BME280;27693;50.506;30.832;2022-09-17T04:12:13;98851.20;;;12.57;80.33
42003;BME280;27693;50.506;30.832;2022-09-17T04:13:15;98854.36;;;12.62;80.22
42003;BME280;27693;50.506;30.832;2022-09-17T04:14:17;98851.32;;;12.69;79.80
42003;BME280;27693;50.506;30.832;2022-09-17T04:15:19;98848.80;;;12.67;79.68
42003;BME280;27693;50.506;30.832;2022-09-17T04:16:21;98856.13;;;12.49;80.15
42003;BME280;27693;50.506;30.832;2022-09-17T04:17:23;98864.34;;;12.43;80.55
42003;BME280;27693;50.506;30.832;2022-09-17T04:18:25;98866.95;;;12.43;80.66
42003;BME280;27693;50.506;30.832;2022-09-17T04:19:27;98874.14;;;12.26;81.31
42003;BME280;27693;50.506;30.832;2022-09-17T04:20:29;98879.36;;;12.26;81.65
42003;BME280;27693;50.506;30.832;2022-09-17T04:21:31;98870.05;;;12.22;81.73
42003;BME280;27693;50.506;30.832;2022-09-17T04:22:33;98877.69;;;12.25;81.79
42003;BME280;27693;50.506;30.832;2022-09-17T04:23:35;98882.60;;;12.30;81.83
42003;BME280;27693;50.506;30.832;2022-09-17T04:24:37;98884.16;;;12.33;81.73
42003;BME280;27693;50.506;30.832;2022-09-17T04:25:39;98883.56;;;12.42;81.70
42003;BME280;27693;50.506;30.832;2022-09-17T04:26:41;98887.30;;;12.38;81.54
42003;BME280;27693;50.506;30.832;2022-09-17T04:27:44;98885.54;;;12.38;81.82
42003;BME280;27693;50.506;30.832;2022-09-17T04:28:46;98878.50;;;12.26;82.01
42003;BME280;27693;50.506;30.832;2022-09-17T04:29:48;98885.06;;;12.19;82.29
42003;BME280;27693;50.506;30.832;2022-09-17T04:30:50;98885.17;;;12.17;82.51
42003;BME280;27693;50.506;30.832;2022-09-17T04:31:52;98882.38;;;12.20;82.38
42003;BME280;27693;50.506;30.832;2022-09-17T04:32:54;98888.52;;;12.19;82.47
42003;BME280;27693;50.506;30.832;2022-09-17T04:33:56;98887.67;;;12.19;82.52
42003;BME280;27693;50.506;30.832;2022-09-17T04:34:58;98886.84;;;12.18;82.62
42003;BME280;27693;50.506;30.832;2022-09-17T04:36:01;98891.53;;;12.13;82.85
42003;BME280;27693;50.506;30.832;2022-09-17T04:37:04;98892.25;;;12.15;82.79
42003;BME280;27693;50.506;30.832;2022-09-17T04:38:06;98890.05;;;12.09;82.90
42003;BME280;27693;50.506;30.832;2022-09-17T04:39:09;98900.80;;;12.04;83.30
42003;BME280;27693;50.506;30.832;2022-09-17T04:40:12;98899.57;;;11.95;83.82
42003;BME280;27693;50.506;30.832;2022-09-17T04:41:15;98901.36;;;11.95;84.01
42003;BME280;27693;50.506;30.832;2022-09-17T04:42:18;98898.91;;;12.06;84.14
42003;BME280;27693;50.506;30.832;2022-09-17T04:43:20;98900.81;;;12.17;83.42
42003;BME280;27693;50.506;30.832;2022-09-17T04:44:22;98896.01;;;12.11;83.28
42003;BME280;27693;50.506;30.832;2022-09-17T04:45:24;98903.41;;;12.04;83.45
42003;BME280;27693;50.506;30.832;2022-09-17T04:46:27;98908.52;;;12.06;83.60
42003;BME280;27693;50.506;30.832;2022-09-17T04:47:29;98908.11;;;12.12;83.57
42003;BME280;27693;50.506;30.832;2022-09-17T04:48:31;98918.03;;;12.20;83.06
42003;BME280;27693;50.506;30.832;2022-09-17T04:49:33;98909.16;;;12.09;83.21
42003;BME280;27693;50.506;30.832;2022-09-17T04:50:35;98909.16;;;12.09;83.44
42003;BME280;27693;50.506;30.832;2022-09-17T04:51:37;98906.88;;;12.18;83.27
42003;BME280;27693;50.506;30.832;2022-09-17T04:52:43;98906.88;;;12.18;83.28
42003;BME280;27693;50.506;30.832;2022-09-17T04:53:45;98903.64;;;12.14;83.32
42003;BME280;27693;50.506;30.832;2022-09-17T04:54:47;98903.08;;;12.09;83.55
42003;BME280;27693;50.506;30.832;2022-09-17T04:55:50;98903.30;;;12.06;83.96
42003;BME280;27693;50.506;30.832;2022-09-17T04:56:52;98893.40;;;12.11;83.99
42003;BME280;27693;50.506;30.832;2022-09-17T04:57:54;98892.80;;;12.20;83.55
42003;BME280;27693;50.506;30.832;2022-09-17T04:58:57;98895.82;;;12.14;83.86
42003;BME280;27693;50.506;30.832;2022-09-17T04:59:59;98887.44;;;12.09;83.95
42003;BME280;27693;50.506;30.832;2022-09-17T05:01:02;98886.62;;;12.08;84.27
42003;BME280;27693;50.506;30.832;2022-09-17T05:02:04;98883.30;;;12.19;84.21
42003;BME280;27693;50.506;30.832;2022-09-17T05:03:06;98885.80;;;12.21;83.94
42003;BME280;27693;50.506;30.832;2022-09-17T05:04:09;98880.10;;;12.28;83.82
42003;BME280;27693;50.506;30.832;2022-09-17T05:05:11;98878.73;;;12.36;83.62
42003;BME280;27693;50.506;30.832;2022-09-17T05:06:14;98871.04;;;12.47;83.24
42003;BME280;27693;50.506;30.832;2022-09-17T05:07:16;98872.07;;;12.57;82.89
42003;BME280;27693;50.506;30.832;2022-09-17T05:08:18;98873.55;;;12.61;82.31
42003;BME280;27693;50.506;30.832;2022-09-17T05:09:20;98873.63;;;12.60;82.34
42003;BME280;27693;50.506;30.832;2022-09-17T05:10:23;98871.45;;;12.67;82.23
42003;BME280;27693;50.506;30.832;2022-09-17T05:11:25;98866.64;;;12.73;81.94
42003;BME280;27693;50.506;30.832;2022-09-17T05:12:27;98870.72;;;12.65;82.27
42003;BME280;27693;50.506;30.832;2022-09-17T05:13:31;98877.30;;;12.70;82.36
42003;BME280;27693;50.506;30.832;2022-09-17T05:14:32;98883.99;;;12.61;82.21
42003;BME280;27693;50.506;30.832;2022-09-17T05:15:34;98891.50;;;12.53;82.70
42003;BME280;27693;50.506;30.832;2022-09-17T05:16:36;98895.36;;;12.60;82.70
42003;BME280;27693;50.506;30.832;2022-09-17T05:17:39;98887.94;;;12.67;82.58
42003;BME280;27693;50.506;30.832;2022-09-17T05:18:42;98898.81;;;12.74;82.38
42003;BME280;27693;50.506;30.832;2022-09-17T05:19:43;98903.80;;;12.51;83.17
42003;BME280;27693;50.506;30.832;2022-09-17T05:20:46;98907.12;;;12.40;83.85
42003;BME280;27693;50.506;30.832;2022-09-17T05:21:47;98901.08;;;12.40;84.01
42003;BME280;27693;50.506;30.832;2022-09-17T05:22:50;98899.52;;;12.50;84.02
42003;BME280;27693;50.506;30.832;2022-09-17T05:23:54;98906.70;;;12.46;83.94
42003;BME280;27693;50.506;30.832;2022-09-17T05:24:56;98897.95;;;12.35;84.29
42003;BME280;27693;50.506;30.832;2022-09-17T05:26:00;98902.94;;;12.25;84.86
42003;BME280;27693;50.506;30.832;2022-09-17T05:27:02;98904.09;;;12.34;84.85
42003;BME280;27693;50.506;30.832;2022-09-17T05:28:04;98898.55;;;12.25;84.77
42003;BME280;27693;50.506;30.832;2022-09-17T05:29:06;98906.70;;;12.34;84.85
42003;BME280;27693;50.506;30.832;2022-09-17T05:30:10;98902.45;;;12.45;84.32
42003;BME280;27693;50.506;30.832;2022-09-17T05:31:12;98903.80;;;12.51;83.78
42003;BME280;27693;50.506;30.832;2022-09-17T05:32:14;98904.43;;;12.55;83.74
42003;BME280;27693;50.506;30.832;2022-09-17T05:33:16;98906.92;;;12.56;83.83
42003;BME280;27693;50.506;30.832;2022-09-17T05:34:19;98904.23;;;12.58;83.96
42003;BME280;27693;50.506;30.832;2022-09-17T05:35:20;98907.99;;;12.67;84.03
42003;BME280;27693;50.506;30.832;2022-09-17T05:36:22;98907.16;;;12.79;83.65
42003;BME280;27693;50.506;30.832;2022-09-17T05:37:24;98901.11;;;12.78;83.02
42003;BME280;27693;50.506;30.832;2022-09-17T05:38:26;98899.33;;;12.79;82.93
42003;BME280;27693;50.506;30.832;2022-09-17T05:39:28;98901.52;;;12.85;82.91
42003;BME280;27693;50.506;30.832;2022-09-17T05:40:31;98905.89;;;12.98;82.84
42003;BME280;27693;50.506;30.832;2022-09-17T05:41:33;98898.70;;;12.88;82.86
42003;BME280;27693;50.506;30.832;2022-09-17T05:42:35;98901.09;;;12.91;82.94
42003;BME280;27693;50.506;30.832;2022-09-17T05:43:37;98899.64;;;12.87;82.71
42003;BME280;27693;50.506;30.832;2022-09-17T05:44:40;98900.58;;;12.86;82.84
42003;BME280;27693;50.506;30.832;2022-09-17T05:45:42;98902.78;;;12.80;83.60
42003;BME280;27693;50.506;30.832;2022-09-17T05:46:46;98907.89;;;12.81;83.66
42003;BME280;27693;50.506;30.832;2022-09-17T05:47:56;98909.45;;;12.84;83.42
42003;BME280;27693;50.506;30.832;2022-09-17T05:48:59;98908.92;;;12.91;83.52
42003;BME280;27693;50.506;30.832;2022-09-17T05:50:01;98902.53;;;13.08;83.73
42003;BME280;27693;50.506;30.832;2022-09-17T05:51:04;98905.02;;;13.23;83.07
42003;BME280;27693;50.506;30.832;2022-09-17T05:52:06;98900.86;;;13.20;82.29
42003;BME280;27693;50.506;30.832;2022-09-17T05:53:12;98894.27;;;13.28;81.81
42003;BME280;27693;50.506;30.832;2022-09-17T05:54:14;98893.09;;;13.32;81.70
42003;BME280;27693;50.506;30.832;2022-09-17T05:55:17;98886.20;;;13.44;81.79
42003;BME280;27693;50.506;30.832;2022-09-17T05:56:20;98885.94;;;13.60;81.76
42003;BME280;27693;50.506;30.832;2022-09-17T05:57:23;98892.19;;;13.70;80.58
42003;BME280;27693;50.506;30.832;2022-09-17T05:58:25;98898.41;;;13.80;80.28
42003;BME280;27693;50.506;30.832;2022-09-17T05:59:28;98893.13;;;13.93;80.09
42003;BME280;27693;50.506;30.832;2022-09-17T06:00:30;98897.91;;;13.99;78.48
42003;BME280;27693;50.506;30.832;2022-09-17T06:01:31;98888.05;;;14.03;78.11
42003;BME280;27693;50.506;30.832;2022-09-17T06:02:33;98893.69;;;14.10;77.79
42003;BME280;27693;50.506;30.832;2022-09-17T06:03:36;98901.16;;;14.14;77.64
42003;BME280;27693;50.506;30.832;2022-09-17T06:04:38;98899.55;;;14.25;77.73
42003;BME280;27693;50.506;30.832;2022-09-17T06:05:40;98899.91;;;14.31;77.49
42003;BME280;27693;50.506;30.832;2022-09-17T06:06:43;98905.33;;;14.41;77.41
42003;BME280;27693;50.506;30.832;2022-09-17T06:07:44;98908.30;;;14.48;77.02
42003;BME280;27693;50.506;30.832;2022-09-17T06:08:47;98913.31;;;14.51;76.70
42003;BME280;27693;50.506;30.832;2022-09-17T06:09:50;98912.73;;;14.59;76.64
42003;BME280;27693;50.506;30.832;2022-09-17T06:10:53;98907.97;;;14.64;75.75
42003;BME280;27693;50.506;30.832;2022-09-17T06:11:58;98912.16;;;14.66;75.76